sensor_id;sensor_type;location;lat;lon;timestamp;temperature;humidity
56103;DHT22;41970;48.774;9.280;2022-08-06T00:02:10;22.20;80.30
56103;DHT22;41970;48.774;9.280;2022-08-06T00:04:36;22.30;80.10
56103;DHT22;41970;48.774;9.280;2022-08-06T00:07:02;22.40;80.40
56103;DHT22;41970;48.774;9.280;2022-08-06T00:09:28;22.40;79.20
56103;DHT22;41970;48.774;9.280;2022-08-06T00:12:03;22.40;79.00
56103;DHT22;41970;48.774;9.280;2022-08-06T00:14:31;22.40;81.10
56103;DHT22;41970;48.774;9.280;2022-08-06T00:16:58;22.40;79.40
56103;DHT22;41970;48.774;9.280;2022-08-06T00:19:24;22.30;79.00
56103;DHT22;41970;48.774;9.280;2022-08-06T00:21:51;22.40;79.10
56103;DHT22;41970;48.774;9.280;2022-08-06T00:24:17;22.40;79.60
56103;DHT22;41970;48.774;9.280;2022-08-06T00:26:43;22.40;79.10
56103;DHT22;41970;48.774;9.280;2022-08-06T00:29:09;22.40;79.00
56103;DHT22;41970;48.774;9.280;2022-08-06T00:31:35;22.50;78.70
56103;DHT22;41970;48.774;9.280;2022-08-06T00:34:01;22.60;78.70
56103;DHT22;41970;48.774;9.280;2022-08-06T00:36:31;22.50;79.30
56103;DHT22;41970;48.774;9.280;2022-08-06T00:39:03;22.40;78.50
56103;DHT22;41970;48.774;9.280;2022-08-06T00:41:30;22.30;78.50
56103;DHT22;41970;48.774;9.280;2022-08-06T00:43:57;22.30;78.50
56103;DHT22;41970;48.774;9.280;2022-08-06T00:46:23;22.20;79.10
56103;DHT22;41970;48.774;9.280;2022-08-06T00:48:49;22.20;77.50
56103;DHT22;41970;48.774;9.280;2022-08-06T00:51:15;22.30;78.40
56103;DHT22;41970;48.774;9.280;2022-08-06T00:53:41;22.20;77.80
56103;DHT22;41970;48.774;9.280;2022-08-06T00:56:07;22.20;76.80
56103;DHT22;41970;48.774;9.280;2022-08-06T00:58:34;22.10;76.80
56103;DHT22;41970;48.774;9.280;2022-08-06T01:01:00;22.10;76.70
56103;DHT22;41970;48.774;9.280;2022-08-06T01:03:26;22.10;77.30
56103;DHT22;41970;48.774;9.280;2022-08-06T01:05:52;21.90;77.90
56103;DHT22;41970;48.774;9.280;2022-08-06T01:08:18;22.00;77.10
56103;DHT22;41970;48.774;9.280;2022-08-06T01:10:44;22.00;77.10
56103;DHT22;41970;48.774;9.280;2022-08-06T01:13:10;21.90;77.50
56103;DHT22;41970;48.774;9.280;2022-08-06T01:15:37;21.80;78.00
56103;DHT22;41970;48.774;9.280;2022-08-06T01:18:10;21.70;78.00
56103;DHT22;41970;48.774;9.280;2022-08-06T01:29:24;21.70;77.20
56103;DHT22;41970;48.774;9.280;2022-08-06T01:31:59;21.60;75.90
56103;DHT22;41970;48.774;9.280;2022-08-06T01:34:32;21.60;76.30
56103;DHT22;41970;48.774;9.280;2022-08-06T01:39:52;21.70;75.10
56103;DHT22;41970;48.774;9.280;2022-08-06T01:42:20;21.70;74.80
56103;DHT22;41970;48.774;9.280;2022-08-06T01:44:49;21.80;74.60
56103;DHT22;41970;48.774;9.280;2022-08-06T01:47:18;21.80;76.00
56103;DHT22;41970;48.774;9.280;2022-08-06T01:49:56;21.80;78.40
56103;DHT22;41970;48.774;9.280;2022-08-06T01:52:24;21.90;74.70
56103;DHT22;41970;48.774;9.280;2022-08-06T01:54:51;21.90;74.50
56103;DHT22;41970;48.774;9.280;2022-08-06T01:57:20;21.90;74.30
56103;DHT22;41970;48.774;9.280;2022-08-06T01:59:50;21.90;75.90
56103;DHT22;41970;48.774;9.280;2022-08-06T02:02:21;21.80;75.80
56103;DHT22;41970;48.774;9.280;2022-08-06T02:04:51;21.70;76.00
56103;DHT22;41970;48.774;9.280;2022-08-06T02:07:23;21.60;75.90
56103;DHT22;41970;48.774;9.280;2022-08-06T02:09:50;21.50;76.00
56103;DHT22;41970;48.774;9.280;2022-08-06T02:12:20;21.40;77.10
56103;DHT22;41970;48.774;9.280;2022-08-06T02:14:53;21.30;77.70
56103;DHT22;41970;48.774;9.280;2022-08-06T02:17:22;21.30;76.50
56103;DHT22;41970;48.774;9.280;2022-08-06T02:19:50;21.20;77.60
56103;DHT22;41970;48.774;9.280;2022-08-06T02:22:18;21.20;77.00
56103;DHT22;41970;48.774;9.280;2022-08-06T02:24:46;21.20;77.80
56103;DHT22;41970;48.774;9.280;2022-08-06T02:27:14;21.20;76.50
56103;DHT22;41970;48.774;9.280;2022-08-06T02:29:44;21.20;78.10
56103;DHT22;41970;48.774;9.280;2022-08-06T02:32:11;21.20;79.00
56103;DHT22;41970;48.774;9.280;2022-08-06T02:34:39;21.20;77.70
56103;DHT22;41970;48.774;9.280;2022-08-06T02:37:12;21.20;76.60
56103;DHT22;41970;48.774;9.280;2022-08-06T02:39:44;21.10;77.80
56103;DHT22;41970;48.774;9.280;2022-08-06T02:42:45;21.10;77.10
56103;DHT22;41970;48.774;9.280;2022-08-06T02:45:34;21.00;77.10
56103;DHT22;41970;48.774;9.280;2022-08-06T02:50:43;21.10;76.60
56103;DHT22;41970;48.774;9.280;2022-08-06T02:53:15;21.20;76.40
56103;DHT22;41970;48.774;9.280;2022-08-06T02:55:43;21.20;75.60
56103;DHT22;41970;48.774;9.280;2022-08-06T03:00:49;21.20;75.90
56103;DHT22;41970;48.774;9.280;2022-08-06T03:03:20;21.30;75.50
56103;DHT22;41970;48.774;9.280;2022-08-06T03:05:50;21.40;77.00
56103;DHT22;41970;48.774;9.280;2022-08-06T03:08:20;21.40;75.50
56103;DHT22;41970;48.774;9.280;2022-08-06T03:10:48;21.40;77.70
56103;DHT22;41970;48.774;9.280;2022-08-06T03:13:14;21.30;75.60
56103;DHT22;41970;48.774;9.280;2022-08-06T03:15:42;21.20;76.10
56103;DHT22;41970;48.774;9.280;2022-08-06T03:18:09;21.20;76.10
56103;DHT22;41970;48.774;9.280;2022-08-06T03:20:39;21.20;76.00
56103;DHT22;41970;48.774;9.280;2022-08-06T03:23:08;21.20;76.50
56103;DHT22;41970;48.774;9.280;2022-08-06T03:25:39;21.20;77.50
56103;DHT22;41970;48.774;9.280;2022-08-06T03:28:06;21.20;77.30
56103;DHT22;41970;48.774;9.280;2022-08-06T03:30:34;21.10;76.20
56103;DHT22;41970;48.774;9.280;2022-08-06T03:33:13;21.00;76.50
56103;DHT22;41970;48.774;9.280;2022-08-06T03:35:40;21.00;76.40
56103;DHT22;41970;48.774;9.280;2022-08-06T03:38:09;21.10;76.20
56103;DHT22;41970;48.774;9.280;2022-08-06T03:40:42;21.10;76.20
56103;DHT22;41970;48.774;9.280;2022-08-06T03:43:09;21.20;76.30
56103;DHT22;41970;48.774;9.280;2022-08-06T03:45:55;21.30;76.50
56103;DHT22;41970;48.774;9.280;2022-08-06T03:48:25;21.10;78.80
56103;DHT22;41970;48.774;9.280;2022-08-06T03:50:53;21.00;78.40
56103;DHT22;41970;48.774;9.280;2022-08-06T03:53:24;21.00;76.60
56103;DHT22;41970;48.774;9.280;2022-08-06T03:55:54;21.10;76.90
56103;DHT22;41970;48.774;9.280;2022-08-06T03:58:21;21.10;76.70
56103;DHT22;41970;48.774;9.280;2022-08-06T04:00:59;21.10;77.60
56103;DHT22;41970;48.774;9.280;2022-08-06T04:03:25;21.10;77.80
56103;DHT22;41970;48.774;9.280;2022-08-06T04:05:52;21.10;77.10
56103;DHT22;41970;48.774;9.280;2022-08-06T04:08:20;21.20;76.70
56103;DHT22;41970;48.774;9.280;2022-08-06T04:10:48;21.20;76.80
56103;DHT22;41970;48.774;9.280;2022-08-06T04:13:17;21.20;77.10
56103;DHT22;41970;48.774;9.280;2022-08-06T04:15:43;21.20;76.90
56103;DHT22;41970;48.774;9.280;2022-08-06T04:18:13;21.20;76.90
56103;DHT22;41970;48.774;9.280;2022-08-06T04:20:42;21.20;77.00
56103;DHT22;41970;48.774;9.280;2022-08-06T04:23:10;21.10;77.20
56103;DHT22;41970;48.774;9.280;2022-08-06T04:25:45;21.10;77.50
56103;DHT22;41970;48.774;9.280;2022-08-06T04:28:12;21.00;77.50
56103;DHT22;41970;48.774;9.280;2022-08-06T04:30:39;21.10;78.40
56103;DHT22;41970;48.774;9.280;2022-08-06T04:33:10;21.20;77.20
56103;DHT22;41970;48.774;9.280;2022-08-06T04:35:39;21.20;77.50
56103;DHT22;41970;48.774;9.280;2022-08-06T04:38:06;21.20;79.20
56103;DHT22;41970;48.774;9.280;2022-08-06T04:40:32;21.20;78.20
56103;DHT22;41970;48.774;9.280;2022-08-06T04:42:58;21.10;78.40
56103;DHT22;41970;48.774;9.280;2022-08-06T04:45:25;21.00;77.80
56103;DHT22;41970;48.774;9.280;2022-08-06T04:47:52;21.10;79.00
56103;DHT22;41970;48.774;9.280;2022-08-06T04:50:18;21.00;78.40
56103;DHT22;41970;48.774;9.280;2022-08-06T04:52:44;20.80;79.90
56103;DHT22;41970;48.774;9.280;2022-08-06T04:55:10;20.70;79.40
56103;DHT22;41970;48.774;9.280;2022-08-06T04:57:36;20.60;80.30
56103;DHT22;41970;48.774;9.280;2022-08-06T05:00:03;20.50;80.60
56103;DHT22;41970;48.774;9.280;2022-08-06T05:02:29;20.60;80.00
56103;DHT22;41970;48.774;9.280;2022-08-06T05:04:55;20.60;80.20
56103;DHT22;41970;48.774;9.280;2022-08-06T05:07:28;20.70;79.60
56103;DHT22;41970;48.774;9.280;2022-08-06T05:09:58;20.60;80.40
56103;DHT22;41970;48.774;9.280;2022-08-06T05:12:35;20.50;81.40
56103;DHT22;41970;48.774;9.280;2022-08-06T05:15:14;20.40;82.40
56103;DHT22;41970;48.774;9.280;2022-08-06T05:17:44;20.30;81.60
56103;DHT22;41970;48.774;9.280;2022-08-06T05:20:19;20.40;81.70
56103;DHT22;41970;48.774;9.280;2022-08-06T05:22:49;20.40;82.80
56103;DHT22;41970;48.774;9.280;2022-08-06T05:25:17;20.40;82.30
56103;DHT22;41970;48.774;9.280;2022-08-06T05:27:43;20.40;82.20
56103;DHT22;41970;48.774;9.280;2022-08-06T05:30:09;20.40;82.20
56103;DHT22;41970;48.774;9.280;2022-08-06T05:32:43;20.40;82.90
56103;DHT22;41970;48.774;9.280;2022-08-06T05:35:09;20.40;82.60
56103;DHT22;41970;48.774;9.280;2022-08-06T05:37:35;20.30;82.30
56103;DHT22;41970;48.774;9.280;2022-08-06T05:40:04;20.30;82.90
56103;DHT22;41970;48.774;9.280;2022-08-06T05:42:30;20.40;82.30
56103;DHT22;41970;48.774;9.280;2022-08-06T05:44:56;20.40;83.30
56103;DHT22;41970;48.774;9.280;2022-08-06T05:47:24;20.40;82.80
56103;DHT22;41970;48.774;9.280;2022-08-06T05:50:14;20.40;82.80
56103;DHT22;41970;48.774;9.280;2022-08-06T05:52:50;20.30;83.20
56103;DHT22;41970;48.774;9.280;2022-08-06T05:58:10;20.30;83.00
56103;DHT22;41970;48.774;9.280;2022-08-06T06:00:38;20.30;84.40
56103;DHT22;41970;48.774;9.280;2022-08-06T06:03:10;20.20;84.00
56103;DHT22;41970;48.774;9.280;2022-08-06T06:05:38;20.20;84.20
56103;DHT22;41970;48.774;9.280;2022-08-06T06:08:06;20.30;84.80
56103;DHT22;41970;48.774;9.280;2022-08-06T06:10:34;20.20;84.60
56103;DHT22;41970;48.774;9.280;2022-08-06T06:13:03;20.20;85.20
56103;DHT22;41970;48.774;9.280;2022-08-06T06:15:29;20.30;84.10
56103;DHT22;41970;48.774;9.280;2022-08-06T06:21:14;20.40;84.10
56103;DHT22;41970;48.774;9.280;2022-08-06T06:23:49;20.40;84.30
56103;DHT22;41970;48.774;9.280;2022-08-06T06:26:44;20.50;83.20
56103;DHT22;41970;48.774;9.280;2022-08-06T06:29:38;20.60;83.10
56103;DHT22;41970;48.774;9.280;2022-08-06T06:32:35;20.60;82.70
56103;DHT22;41970;48.774;9.280;2022-08-06T06:35:17;20.50;84.00
56103;DHT22;41970;48.774;9.280;2022-08-06T06:38:07;20.70;83.50
56103;DHT22;41970;48.774;9.280;2022-08-06T06:40:47;20.80;82.60
56103;DHT22;41970;48.774;9.280;2022-08-06T06:43:27;20.80;82.70
56103;DHT22;41970;48.774;9.280;2022-08-06T06:48:45;20.60;83.30
56103;DHT22;41970;48.774;9.280;2022-08-06T06:54:05;20.40;84.70
56103;DHT22;41970;48.774;9.280;2022-08-06T06:56:36;20.40;84.70
56103;DHT22;41970;48.774;9.280;2022-08-06T06:59:11;20.40;83.60
56103;DHT22;41970;48.774;9.280;2022-08-06T07:01:39;20.50;84.40
56103;DHT22;41970;48.774;9.280;2022-08-06T07:04:08;20.60;84.30
56103;DHT22;41970;48.774;9.280;2022-08-06T07:06:36;20.70;84.30
56103;DHT22;41970;48.774;9.280;2022-08-06T07:09:03;20.80;83.40
56103;DHT22;41970;48.774;9.280;2022-08-06T07:11:30;20.80;83.30
56103;DHT22;41970;48.774;9.280;2022-08-06T07:13:58;20.90;82.50
56103;DHT22;41970;48.774;9.280;2022-08-06T07:16:26;21.10;83.50
56103;DHT22;41970;48.774;9.280;2022-08-06T07:18:53;21.20;81.80
56103;DHT22;41970;48.774;9.280;2022-08-06T07:21:20;21.30;82.10
56103;DHT22;41970;48.774;9.280;2022-08-06T07:23:50;21.40;81.80
56103;DHT22;41970;48.774;9.280;2022-08-06T07:26:19;21.40;81.60
56103;DHT22;41970;48.774;9.280;2022-08-06T07:28:47;21.40;81.60
56103;DHT22;41970;48.774;9.280;2022-08-06T07:31:13;21.60;81.50
56103;DHT22;41970;48.774;9.280;2022-08-06T07:33:42;21.60;80.90
56103;DHT22;41970;48.774;9.280;2022-08-06T07:36:09;21.80;80.90
56103;DHT22;41970;48.774;9.280;2022-08-06T07:38:39;22.00;79.40
56103;DHT22;41970;48.774;9.280;2022-08-06T07:41:06;22.10;78.80
56103;DHT22;41970;48.774;9.280;2022-08-06T07:43:40;22.30;78.70
56103;DHT22;41970;48.774;9.280;2022-08-06T07:46:10;22.60;77.40
56103;DHT22;41970;48.774;9.280;2022-08-06T07:48:43;22.80;77.10
56103;DHT22;41970;48.774;9.280;2022-08-06T07:51:12;22.80;75.20
56103;DHT22;41970;48.774;9.280;2022-08-06T07:53:38;22.20;77.20
56103;DHT22;41970;48.774;9.280;2022-08-06T07:56:08;21.80;78.80
56103;DHT22;41970;48.774;9.280;2022-08-06T07:58:37;21.60;79.30
56103;DHT22;41970;48.774;9.280;2022-08-06T08:01:03;21.80;79.60
56103;DHT22;41970;48.774;9.280;2022-08-06T08:03:32;22.00;78.50
56103;DHT22;41970;48.774;9.280;2022-08-06T08:06:19;22.00;78.70
56103;DHT22;41970;48.774;9.280;2022-08-06T08:09:03;21.90;79.70
56103;DHT22;41970;48.774;9.280;2022-08-06T08:11:30;21.90;79.50
56103;DHT22;41970;48.774;9.280;2022-08-06T08:13:57;22.00;78.80
56103;DHT22;41970;48.774;9.280;2022-08-06T08:16:25;22.20;78.10
56103;DHT22;41970;48.774;9.280;2022-08-06T08:18:52;22.40;78.10
56103;DHT22;41970;48.774;9.280;2022-08-06T08:21:19;22.80;76.60
56103;DHT22;41970;48.774;9.280;2022-08-06T08:23:47;23.00;76.20
56103;DHT22;41970;48.774;9.280;2022-08-06T08:26:13;23.30;75.40
56103;DHT22;41970;48.774;9.280;2022-08-06T08:28:39;24.10;73.60
56103;DHT22;41970;48.774;9.280;2022-08-06T08:31:05;24.20;72.60
56103;DHT22;41970;48.774;9.280;2022-08-06T08:33:32;24.10;72.50
56103;DHT22;41970;48.774;9.280;2022-08-06T08:35:59;23.90;72.80
56103;DHT22;41970;48.774;9.280;2022-08-06T08:38:31;24.30;72.50
56103;DHT22;41970;48.774;9.280;2022-08-06T08:41:24;23.40;71.90
56103;DHT22;41970;48.774;9.280;2022-08-06T08:44:13;22.90;74.50
56103;DHT22;41970;48.774;9.280;2022-08-06T08:46:42;23.10;73.30
56103;DHT22;41970;48.774;9.280;2022-08-06T08:49:37;23.20;72.50
56103;DHT22;41970;48.774;9.280;2022-08-06T08:52:06;23.00;73.70
56103;DHT22;41970;48.774;9.280;2022-08-06T08:54:35;23.50;71.80
56103;DHT22;41970;48.774;9.280;2022-08-06T08:57:05;23.60;71.50
56103;DHT22;41970;48.774;9.280;2022-08-06T08:59:35;23.50;71.80
56103;DHT22;41970;48.774;9.280;2022-08-06T09:02:03;23.60;72.70
56103;DHT22;41970;48.774;9.280;2022-08-06T09:04:31;23.80;71.50
56103;DHT22;41970;48.774;9.280;2022-08-06T09:06:58;23.70;70.40
56103;DHT22;41970;48.774;9.280;2022-08-06T09:09:27;23.60;70.50
56103;DHT22;41970;48.774;9.280;2022-08-06T09:11:53;23.70;69.70
56103;DHT22;41970;48.774;9.280;2022-08-06T09:14:20;23.80;69.60
56103;DHT22;41970;48.774;9.280;2022-08-06T09:16:47;23.90;70.50
56103;DHT22;41970;48.774;9.280;2022-08-06T09:19:15;23.80;69.90
56103;DHT22;41970;48.774;9.280;2022-08-06T09:21:41;23.80;69.40
56103;DHT22;41970;48.774;9.280;2022-08-06T09:24:09;23.60;67.70
56103;DHT22;41970;48.774;9.280;2022-08-06T09:26:35;23.50;69.10
56103;DHT22;41970;48.774;9.280;2022-08-06T09:29:00;23.70;67.30
56103;DHT22;41970;48.774;9.280;2022-08-06T09:31:27;23.70;67.00
56103;DHT22;41970;48.774;9.280;2022-08-06T09:33:58;23.70;67.20
56103;DHT22;41970;48.774;9.280;2022-08-06T09:36:25;23.70;67.90
56103;DHT22;41970;48.774;9.280;2022-08-06T09:38:59;23.80;68.00
56103;DHT22;41970;48.774;9.280;2022-08-06T09:41:28;24.00;66.10
56103;DHT22;41970;48.774;9.280;2022-08-06T09:43:57;24.00;65.80
56103;DHT22;41970;48.774;9.280;2022-08-06T09:46:45;24.00;65.30
56103;DHT22;41970;48.774;9.280;2022-08-06T09:49:13;24.00;64.40
56103;DHT22;41970;48.774;9.280;2022-08-06T09:51:40;23.90;65.40
56103;DHT22;41970;48.774;9.280;2022-08-06T09:54:11;23.90;65.30
56103;DHT22;41970;48.774;9.280;2022-08-06T09:56:44;23.80;65.90
56103;DHT22;41970;48.774;9.280;2022-08-06T09:59:12;23.80;67.10
56103;DHT22;41970;48.774;9.280;2022-08-06T10:01:40;23.90;66.20
56103;DHT22;41970;48.774;9.280;2022-08-06T10:04:07;24.10;65.80
56103;DHT22;41970;48.774;9.280;2022-08-06T10:06:56;24.10;66.40
56103;DHT22;41970;48.774;9.280;2022-08-06T10:09:23;23.90;67.90
56103;DHT22;41970;48.774;9.280;2022-08-06T10:11:49;23.80;65.90
56103;DHT22;41970;48.774;9.280;2022-08-06T10:14:32;23.90;66.80
56103;DHT22;41970;48.774;9.280;2022-08-06T10:17:17;24.00;65.90
56103;DHT22;41970;48.774;9.280;2022-08-06T10:19:48;24.00;65.00
56103;DHT22;41970;48.774;9.280;2022-08-06T10:22:29;24.10;65.50
56103;DHT22;41970;48.774;9.280;2022-08-06T10:24:58;24.10;65.10
56103;DHT22;41970;48.774;9.280;2022-08-06T10:27:31;23.90;66.40
56103;DHT22;41970;48.774;9.280;2022-08-06T10:30:03;23.70;66.40
56103;DHT22;41970;48.774;9.280;2022-08-06T10:35:02;23.60;65.70
56103;DHT22;41970;48.774;9.280;2022-08-06T10:37:33;23.80;65.60
56103;DHT22;41970;48.774;9.280;2022-08-06T10:40:02;24.20;65.40
56103;DHT22;41970;48.774;9.280;2022-08-06T10:42:29;24.50;63.90
56103;DHT22;41970;48.774;9.280;2022-08-06T10:44:56;24.80;64.60
56103;DHT22;41970;48.774;9.280;2022-08-06T10:47:24;25.00;63.30
56103;DHT22;41970;48.774;9.280;2022-08-06T10:49:52;25.10;63.00
56103;DHT22;41970;48.774;9.280;2022-08-06T10:52:19;25.00;63.60
56103;DHT22;41970;48.774;9.280;2022-08-06T10:54:46;24.90;62.50
56103;DHT22;41970;48.774;9.280;2022-08-06T10:57:12;24.70;62.70
56103;DHT22;41970;48.774;9.280;2022-08-06T10:59:43;24.70;62.60
56103;DHT22;41970;48.774;9.280;2022-08-06T11:05:20;24.90;63.10
56103;DHT22;41970;48.774;9.280;2022-08-06T11:11:43;24.60;62.30
56103;DHT22;41970;48.774;9.280;2022-08-06T11:14:13;24.80;62.40
56103;DHT22;41970;48.774;9.280;2022-08-06T11:16:40;24.90;62.20
56103;DHT22;41970;48.774;9.280;2022-08-06T11:19:08;25.00;61.20
56103;DHT22;41970;48.774;9.280;2022-08-06T11:21:38;24.80;60.80
56103;DHT22;41970;48.774;9.280;2022-08-06T11:24:05;24.40;62.00
56103;DHT22;41970;48.774;9.280;2022-08-06T11:26:35;24.30;62.60
56103;DHT22;41970;48.774;9.280;2022-08-06T11:29:02;24.30;63.00
56103;DHT22;41970;48.774;9.280;2022-08-06T11:31:40;24.70;61.10
56103;DHT22;41970;48.774;9.280;2022-08-06T11:34:09;25.00;60.00
56103;DHT22;41970;48.774;9.280;2022-08-06T11:36:50;25.20;59.80
56103;DHT22;41970;48.774;9.280;2022-08-06T11:39:17;25.10;59.30
56103;DHT22;41970;48.774;9.280;2022-08-06T11:41:49;25.10;59.70
56103;DHT22;41970;48.774;9.280;2022-08-06T11:44:17;25.20;59.70
56103;DHT22;41970;48.774;9.280;2022-08-06T11:46:47;25.10;60.60
56103;DHT22;41970;48.774;9.280;2022-08-06T11:49:16;25.20;59.90
56103;DHT22;41970;48.774;9.280;2022-08-06T11:51:53;25.30;59.50
56103;DHT22;41970;48.774;9.280;2022-08-06T11:59:33;25.40;58.60
56103;DHT22;41970;48.774;9.280;2022-08-06T12:02:02;25.30;58.70
56103;DHT22;41970;48.774;9.280;2022-08-06T12:09:44;25.30;58.90
56103;DHT22;41970;48.774;9.280;2022-08-06T12:15:43;25.40;58.90
56103;DHT22;41970;48.774;9.280;2022-08-06T12:20:30;25.50;59.30
56103;DHT22;41970;48.774;9.280;2022-08-06T12:23:02;25.60;57.60
56103;DHT22;41970;48.774;9.280;2022-08-06T12:25:33;25.60;57.20
56103;DHT22;41970;48.774;9.280;2022-08-06T12:28:00;25.60;57.90
56103;DHT22;41970;48.774;9.280;2022-08-06T12:30:26;25.60;58.10
56103;DHT22;41970;48.774;9.280;2022-08-06T12:33:01;25.70;58.10
56103;DHT22;41970;48.774;9.280;2022-08-06T12:35:28;25.70;57.60
56103;DHT22;41970;48.774;9.280;2022-08-06T12:37:54;25.70;57.80
56103;DHT22;41970;48.774;9.280;2022-08-06T12:40:21;25.80;57.30
56103;DHT22;41970;48.774;9.280;2022-08-06T12:43:14;25.80;58.10
56103;DHT22;41970;48.774;9.280;2022-08-06T12:45:40;25.80;56.90
56103;DHT22;41970;48.774;9.280;2022-08-06T12:48:08;25.90;56.70
56103;DHT22;41970;48.774;9.280;2022-08-06T12:50:38;25.50;57.20
56103;DHT22;41970;48.774;9.280;2022-08-06T12:53:07;25.50;57.60
56103;DHT22;41970;48.774;9.280;2022-08-06T12:55:55;25.50;57.90
56103;DHT22;41970;48.774;9.280;2022-08-06T12:58:34;25.50;57.80
56103;DHT22;41970;48.774;9.280;2022-08-06T13:01:01;25.70;57.10
56103;DHT22;41970;48.774;9.280;2022-08-06T13:03:29;25.80;56.70
56103;DHT22;41970;48.774;9.280;2022-08-06T13:05:58;26.00;55.80
56103;DHT22;41970;48.774;9.280;2022-08-06T13:08:26;26.20;55.90
56103;DHT22;41970;48.774;9.280;2022-08-06T13:10:53;26.30;55.70
56103;DHT22;41970;48.774;9.280;2022-08-06T13:13:20;26.30;56.10
56103;DHT22;41970;48.774;9.280;2022-08-06T13:16:02;26.20;55.20
56103;DHT22;41970;48.774;9.280;2022-08-06T13:18:28;26.00;56.10
56103;DHT22;41970;48.774;9.280;2022-08-06T13:20:54;26.10;55.00
56103;DHT22;41970;48.774;9.280;2022-08-06T13:23:38;26.20;54.80
56103;DHT22;41970;48.774;9.280;2022-08-06T13:26:21;26.40;54.70
56103;DHT22;41970;48.774;9.280;2022-08-06T13:29:09;26.70;54.10
56103;DHT22;41970;48.774;9.280;2022-08-06T13:31:36;26.90;54.10
56103;DHT22;41970;48.774;9.280;2022-08-06T13:34:05;27.00;53.40
56103;DHT22;41970;48.774;9.280;2022-08-06T13:36:33;26.70;54.90
56103;DHT22;41970;48.774;9.280;2022-08-06T13:39:21;26.30;54.50
56103;DHT22;41970;48.774;9.280;2022-08-06T13:41:58;26.20;54.20
56103;DHT22;41970;48.774;9.280;2022-08-06T13:44:33;26.20;54.40
56103;DHT22;41970;48.774;9.280;2022-08-06T13:47:00;26.40;54.30
56103;DHT22;41970;48.774;9.280;2022-08-06T13:49:27;26.60;54.00
56103;DHT22;41970;48.774;9.280;2022-08-06T13:51:53;26.70;53.70
56103;DHT22;41970;48.774;9.280;2022-08-06T13:54:20;26.80;53.50
56103;DHT22;41970;48.774;9.280;2022-08-06T13:56:47;26.80;53.20
56103;DHT22;41970;48.774;9.280;2022-08-06T13:59:13;27.10;52.90
56103;DHT22;41970;48.774;9.280;2022-08-06T14:01:41;27.40;52.60
56103;DHT22;41970;48.774;9.280;2022-08-06T14:04:07;27.60;52.20
56103;DHT22;41970;48.774;9.280;2022-08-06T14:06:33;27.60;52.20
56103;DHT22;41970;48.774;9.280;2022-08-06T14:08:58;27.30;51.00
56103;DHT22;41970;48.774;9.280;2022-08-06T14:11:25;27.10;52.50
56103;DHT22;41970;48.774;9.280;2022-08-06T14:13:52;26.50;52.60
56103;DHT22;41970;48.774;9.280;2022-08-06T14:16:17;26.10;53.30
56103;DHT22;41970;48.774;9.280;2022-08-06T14:18:43;26.20;54.10
56103;DHT22;41970;48.774;9.280;2022-08-06T14:21:09;26.50;53.60
56103;DHT22;41970;48.774;9.280;2022-08-06T14:23:35;26.50;53.10
56103;DHT22;41970;48.774;9.280;2022-08-06T14:26:01;26.70;52.90
56103;DHT22;41970;48.774;9.280;2022-08-06T14:28:33;26.90;52.80
56103;DHT22;41970;48.774;9.280;2022-08-06T14:30:59;26.90;52.30
56103;DHT22;41970;48.774;9.280;2022-08-06T14:33:25;27.10;51.90
56103;DHT22;41970;48.774;9.280;2022-08-06T14:35:51;27.30;50.70
56103;DHT22;41970;48.774;9.280;2022-08-06T14:38:21;27.40;50.70
56103;DHT22;41970;48.774;9.280;2022-08-06T14:40:47;27.50;50.70
56103;DHT22;41970;48.774;9.280;2022-08-06T14:43:31;27.60;50.00
56103;DHT22;41970;48.774;9.280;2022-08-06T14:46:15;27.60;49.40
56103;DHT22;41970;48.774;9.280;2022-08-06T14:48:41;27.70;49.10
56103;DHT22;41970;48.774;9.280;2022-08-06T14:51:07;27.80;49.00
56103;DHT22;41970;48.774;9.280;2022-08-06T14:53:33;27.70;48.90
56103;DHT22;41970;48.774;9.280;2022-08-06T14:55:59;27.60;49.40
56103;DHT22;41970;48.774;9.280;2022-08-06T14:58:25;27.60;50.10
56103;DHT22;41970;48.774;9.280;2022-08-06T15:00:50;27.50;50.00
56103;DHT22;41970;48.774;9.280;2022-08-06T15:03:18;27.60;49.30
56103;DHT22;41970;48.774;9.280;2022-08-06T15:05:45;27.60;50.10
56103;DHT22;41970;48.774;9.280;2022-08-06T15:08:11;27.60;49.30
56103;DHT22;41970;48.774;9.280;2022-08-06T15:10:37;27.00;50.30
56103;DHT22;41970;48.774;9.280;2022-08-06T15:13:04;26.80;51.90
56103;DHT22;41970;48.774;9.280;2022-08-06T15:15:33;26.60;51.30
56103;DHT22;41970;48.774;9.280;2022-08-06T15:17:59;26.80;50.70
56103;DHT22;41970;48.774;9.280;2022-08-06T15:20:25;26.80;51.00
56103;DHT22;41970;48.774;9.280;2022-08-06T15:22:52;26.90;50.80
56103;DHT22;41970;48.774;9.280;2022-08-06T15:25:18;27.30;50.80
56103;DHT22;41970;48.774;9.280;2022-08-06T15:27:45;27.70;49.90
56103;DHT22;41970;48.774;9.280;2022-08-06T15:30:12;27.80;48.00
56103;DHT22;41970;48.774;9.280;2022-08-06T15:32:38;27.80;49.00
56103;DHT22;41970;48.774;9.280;2022-08-06T15:35:04;27.50;50.20
56103;DHT22;41970;48.774;9.280;2022-08-06T15:37:30;27.30;50.20
56103;DHT22;41970;48.774;9.280;2022-08-06T15:39:56;27.10;50.30
56103;DHT22;41970;48.774;9.280;2022-08-06T15:42:23;27.10;49.70
56103;DHT22;41970;48.774;9.280;2022-08-06T15:44:51;27.30;48.40
56103;DHT22;41970;48.774;9.280;2022-08-06T15:47:17;27.30;49.70
56103;DHT22;41970;48.774;9.280;2022-08-06T15:49:44;27.30;49.70
56103;DHT22;41970;48.774;9.280;2022-08-06T15:52:10;27.40;49.40
56103;DHT22;41970;48.774;9.280;2022-08-06T15:54:36;27.50;49.40
56103;DHT22;41970;48.774;9.280;2022-08-06T15:57:02;27.40;50.00
56103;DHT22;41970;48.774;9.280;2022-08-06T15:59:28;27.30;50.00
56103;DHT22;41970;48.774;9.280;2022-08-06T16:01:54;27.30;49.90
56103;DHT22;41970;48.774;9.280;2022-08-06T16:04:20;27.30;49.50
56103;DHT22;41970;48.774;9.280;2022-08-06T16:06:46;27.40;49.40
56103;DHT22;41970;48.774;9.280;2022-08-06T16:09:12;27.60;48.70
56103;DHT22;41970;48.774;9.280;2022-08-06T16:11:39;27.70;48.30
56103;DHT22;41970;48.774;9.280;2022-08-06T16:14:05;27.60;48.30
56103;DHT22;41970;48.774;9.280;2022-08-06T16:16:31;27.60;48.60
56103;DHT22;41970;48.774;9.280;2022-08-06T16:18:58;27.50;48.80
56103;DHT22;41970;48.774;9.280;2022-08-06T16:21:24;27.40;49.10
56103;DHT22;41970;48.774;9.280;2022-08-06T16:23:51;27.20;49.40
56103;DHT22;41970;48.774;9.280;2022-08-06T16:26:17;27.10;49.20
56103;DHT22;41970;48.774;9.280;2022-08-06T16:28:46;27.10;48.90
56103;DHT22;41970;48.774;9.280;2022-08-06T16:31:13;27.20;48.70
56103;DHT22;41970;48.774;9.280;2022-08-06T16:33:39;27.20;48.80
56103;DHT22;41970;48.774;9.280;2022-08-06T16:36:06;27.10;50.30
56103;DHT22;41970;48.774;9.280;2022-08-06T16:38:32;27.10;48.70
56103;DHT22;41970;48.774;9.280;2022-08-06T16:40:57;27.10;48.90